createdAt,value
2024-03-10T00:00:53.301Z,17.23
2024-03-10T00:03:55.062Z,15.90
2024-03-10T00:06:56.607Z,16.55
2024-03-10T00:09:58.363Z,14.73
2024-03-10T00:12:59.953Z,14.97
2024-03-10T00:16:01.563Z,14.77
2024-03-10T00:19:04.832Z,17.02
2024-03-10T00:22:06.329Z,16.58
2024-03-10T00:25:08.827Z,16.00
2024-03-10T00:28:10.397Z,16.17
2024-03-10T00:31:11.996Z,15.32
2024-03-10T00:34:13.501Z,17.17
2024-03-10T00:37:16.038Z,16.55
2024-03-10T00:40:17.812Z,16.42
2024-03-10T00:43:19.420Z,16.10
2024-03-10T00:46:21.024Z,17.00
2024-03-10T00:49:23.514Z,17.40
2024-03-10T00:52:25.045Z,17.15
2024-03-10T00:55:27.652Z,16.27
2024-03-10T00:58:29.172Z,16.03
2024-03-10T01:01:30.769Z,15.70
2024-03-10T01:04:33.211Z,15.82
2024-03-10T01:07:34.750Z,17.25
2024-03-10T01:10:36.905Z,16.10
2024-03-10T01:13:39.092Z,16.83
2024-03-10T01:16:42.309Z,17.63
2024-03-10T01:19:45.360Z,15.25
2024-03-10T01:22:47.094Z,19.30
2024-03-10T01:25:48.805Z,16.00
2024-03-10T01:28:50.374Z,17.70
2024-03-10T01:31:51.996Z,18.63
2024-03-10T01:34:54.372Z,18.00
2024-03-10T01:37:56.023Z,18.50
2024-03-10T01:40:59.031Z,18.15
2024-03-10T01:44:00.817Z,18.30
2024-03-10T01:47:03.111Z,18.55
2024-03-10T01:50:07.270Z,20.35
2024-03-10T01:53:10.767Z,19.13
2024-03-10T01:56:12.852Z,17.65
2024-03-10T01:59:15.717Z,19.87
2024-03-10T02:02:19.320Z,18.95
2024-03-10T02:05:21.453Z,19.52
2024-03-10T02:08:23.206Z,18.98
2024-03-10T02:11:25.129Z,18.90
2024-03-10T02:14:26.837Z,20.27
2024-03-10T02:17:28.957Z,20.98
2024-03-10T02:20:33.287Z,22.42
2024-03-10T02:23:50.843Z,19.27
2024-03-10T02:26:53.036Z,19.80
2024-03-10T02:30:20.721Z,20.87
2024-03-10T02:33:41.504Z,18.48
2024-03-10T02:37:01.704Z,19.65
2024-03-10T02:40:22.074Z,21.15
2024-03-10T02:43:42.177Z,20.50
2024-03-10T02:47:03.702Z,18.77
2024-03-10T02:50:07.164Z,19.90
2024-03-10T02:53:11.254Z,19.75
2024-03-10T02:56:13.042Z,19.67
2024-03-10T02:59:14.759Z,17.38
2024-03-10T03:02:20.301Z,19.10
2024-03-10T03:05:22.928Z,21.13
2024-03-10T03:08:25.949Z,20.63
2024-03-10T03:11:27.712Z,19.05
2024-03-10T03:14:29.318Z,20.15
2024-03-10T03:17:32.148Z,21.53
2024-03-10T03:20:34.495Z,21.27
2024-03-10T03:23:36.143Z,20.88
2024-03-10T03:26:37.995Z,21.73
2024-03-10T03:29:39.591Z,21.35
2024-03-10T03:32:41.185Z,20.73
2024-03-10T03:35:42.753Z,21.77
2024-03-10T03:38:45.703Z,19.77
2024-03-10T03:41:47.290Z,21.48
2024-03-10T03:44:51.019Z,20.75
2024-03-10T03:47:52.732Z,19.97
2024-03-10T03:50:54.217Z,20.30
2024-03-10T03:53:55.752Z,20.85
2024-03-10T03:56:58.627Z,22.90
2024-03-10T04:00:01.208Z,19.17
2024-03-10T04:03:02.800Z,20.43
2024-03-10T04:06:06.905Z,20.30
2024-03-10T04:09:09.142Z,23.00
2024-03-10T04:12:10.819Z,20.40
2024-03-10T04:15:12.450Z,22.83
2024-03-10T04:18:14.808Z,21.93
2024-03-10T04:21:16.987Z,22.50
2024-03-10T04:24:19.394Z,21.08
2024-03-10T04:27:20.956Z,19.58
2024-03-10T04:30:23.376Z,20.75
2024-03-10T04:33:26.276Z,20.60
2024-03-10T04:36:30.350Z,19.92
2024-03-10T04:39:32.011Z,20.85
2024-03-10T04:42:35.583Z,22.48
2024-03-10T04:45:37.560Z,21.52
2024-03-10T04:48:39.085Z,22.77
2024-03-10T04:51:43.311Z,20.25
2024-03-10T04:54:46.862Z,21.63
2024-03-10T04:57:49.705Z,20.55
2024-03-10T05:00:51.413Z,22.23
2024-03-10T05:03:52.960Z,21.20
2024-03-10T05:06:54.463Z,21.58
2024-03-10T05:09:56.012Z,20.60
2024-03-10T05:12:57.532Z,20.55
2024-03-10T05:15:59.336Z,20.55
2024-03-10T05:19:00.974Z,23.17
2024-03-10T05:22:03.905Z,20.48
2024-03-10T05:25:06.327Z,20.17
2024-03-10T05:28:08.073Z,20.38
2024-03-10T05:31:27.427Z,21.55
2024-03-10T05:34:29.627Z,22.17
2024-03-10T05:37:31.148Z,20.92
2024-03-10T05:40:33.630Z,20.48
2024-03-10T05:43:35.205Z,22.92
2024-03-10T05:46:36.860Z,21.45
2024-03-10T05:49:38.400Z,22.07
2024-03-10T05:52:39.897Z,21.17
2024-03-10T05:55:41.498Z,22.83
2024-03-10T05:58:43.424Z,21.55
2024-03-10T06:01:46.373Z,24.60
2024-03-10T06:04:47.979Z,22.10
2024-03-10T06:07:49.657Z,23.17
2024-03-10T06:10:51.434Z,22.73
2024-03-10T06:13:53.207Z,24.27
2024-03-10T06:16:56.559Z,22.50
2024-03-10T06:20:17.275Z,21.93
2024-03-10T06:23:53.826Z,23.92
2024-03-10T06:26:56.328Z,23.33
2024-03-10T06:29:57.830Z,24.25
2024-03-10T06:32:59.459Z,22.77
2024-03-10T06:36:00.972Z,24.27
2024-03-10T06:39:02.445Z,23.83
2024-03-10T06:42:04.331Z,22.08
2024-03-10T06:45:07.012Z,23.88
2024-03-10T06:48:08.657Z,23.33
2024-03-10T06:51:10.873Z,23.87
2024-03-10T06:54:13.243Z,24.65
2024-03-10T06:57:14.718Z,24.05
2024-03-10T07:00:16.816Z,26.65
2024-03-10T07:03:19.384Z,24.75
2024-03-10T07:06:24.130Z,26.10
2024-03-10T07:09:26.348Z,25.17
2024-03-10T07:12:29.956Z,25.10
2024-03-10T07:15:34.469Z,25.35
2024-03-10T07:18:38.209Z,26.75
2024-03-10T07:21:39.756Z,25.60
2024-03-10T07:24:41.253Z,24.55
2024-03-10T07:27:42.856Z,26.33
2024-03-10T07:30:44.420Z,27.58
2024-03-10T07:33:45.970Z,25.35
2024-03-10T07:36:47.676Z,28.03
2024-03-10T07:39:49.248Z,26.02
2024-03-10T07:42:51.199Z,24.27
2024-03-10T07:45:52.800Z,27.60
2024-03-10T07:48:56.025Z,27.08
2024-03-10T07:51:57.608Z,26.90
2024-03-10T07:54:59.098Z,29.67
2024-03-10T07:58:00.847Z,27.77
2024-03-10T08:01:02.886Z,26.75
2024-03-10T08:04:04.732Z,26.48
2024-03-10T08:07:09.024Z,28.30
2024-03-10T08:10:13.822Z,28.38
2024-03-10T08:13:16.145Z,26.40
2024-03-10T08:16:17.679Z,28.63
2024-03-10T08:19:19.378Z,29.33
2024-03-10T08:22:21.867Z,28.53
2024-03-10T08:25:23.830Z,29.73
2024-03-10T08:28:26.265Z,30.08
2024-03-10T08:31:27.854Z,27.63
2024-03-10T08:34:29.370Z,30.13
2024-03-10T08:37:30.904Z,28.73
2024-03-10T08:40:36.261Z,25.63
2024-03-10T08:43:37.842Z,28.25
2024-03-10T08:46:39.415Z,29.80
2024-03-10T08:49:41.035Z,27.05
2024-03-10T08:52:44.299Z,27.00
2024-03-10T08:55:48.701Z,28.65
2024-03-10T08:58:50.253Z,28.35
2024-03-10T09:01:52.434Z,26.38
2024-03-10T09:04:54.008Z,27.65
2024-03-10T09:07:56.681Z,27.90
2024-03-10T09:11:04.447Z,26.25
2024-03-10T09:14:09.096Z,24.65
2024-03-10T09:17:13.254Z,27.25
2024-03-10T09:20:16.608Z,26.00
2024-03-10T09:23:18.359Z,24.00
2024-03-10T09:26:21.573Z,27.60
2024-03-10T09:29:30.879Z,25.20
2024-03-10T09:32:32.702Z,27.33
2024-03-10T09:35:37.307Z,28.40
2024-03-10T09:38:39.273Z,28.90
2024-03-10T09:41:43.209Z,27.05
2024-03-10T09:44:46.208Z,28.88
2024-03-10T09:47:51.304Z,28.50
2024-03-10T09:50:53.826Z,27.75
2024-03-10T09:53:55.326Z,25.70
2024-03-10T09:56:57.082Z,25.90
2024-03-10T10:00:01.420Z,26.73
2024-03-10T10:03:04.398Z,26.17
2024-03-10T10:06:09.542Z,25.25
2024-03-10T10:09:11.813Z,23.90
2024-03-10T10:12:14.326Z,24.73
2024-03-10T10:15:19.024Z,27.55
2024-03-10T10:18:22.469Z,25.23
2024-03-10T10:21:27.925Z,23.20
2024-03-10T10:24:29.450Z,22.70
2024-03-10T10:27:32.268Z,25.08
2024-03-10T10:30:33.776Z,27.77
2024-03-10T10:33:35.846Z,24.90
2024-03-10T10:36:38.435Z,24.40
2024-03-10T10:39:40.450Z,25.37
2024-03-10T10:42:53.758Z,24.23
2024-03-10T10:46:02.412Z,23.58
2024-03-10T10:49:06.316Z,24.50
2024-03-10T10:52:12.984Z,22.63
2024-03-10T10:55:16.717Z,23.23
2024-03-10T10:58:20.187Z,24.08
2024-03-10T11:01:22.597Z,24.60
2024-03-10T11:04:28.106Z,23.17
2024-03-10T11:07:29.772Z,23.95
2024-03-10T11:10:44.164Z,24.30
2024-03-10T11:13:47.752Z,25.15
2024-03-10T11:16:49.460Z,25.75
2024-03-10T11:19:53.333Z,22.67
2024-03-10T11:22:56.022Z,23.98
2024-03-10T11:26:02.926Z,20.00
2024-03-10T11:29:05.329Z,19.25
2024-03-10T11:32:27.439Z,20.27
2024-03-10T11:35:30.272Z,19.88
2024-03-10T11:38:32.602Z,20.60
2024-03-10T11:41:34.689Z,21.00
2024-03-10T11:44:37.161Z,23.15
2024-03-10T11:47:39.303Z,21.52
2024-03-10T11:50:42.176Z,19.88
2024-03-10T11:53:43.784Z,22.42
2024-03-10T11:56:46.614Z,20.20
2024-03-10T11:59:50.185Z,20.70
2024-03-10T12:02:52.672Z,20.58
2024-03-10T12:05:54.432Z,21.15
2024-03-10T12:08:56.024Z,20.92
2024-03-10T12:12:11.459Z,21.53
2024-03-10T12:15:21.052Z,22.60
2024-03-10T12:18:25.885Z,20.80
2024-03-10T12:21:30.559Z,21.40
2024-03-10T12:24:34.008Z,20.38
2024-03-10T12:27:37.138Z,20.57
2024-03-10T12:30:38.766Z,20.38
2024-03-10T12:33:45.598Z,23.15
2024-03-10T12:36:47.061Z,20.35
2024-03-10T12:39:56.555Z,20.45
2024-03-10T12:42:58.219Z,20.50
2024-03-10T12:46:02.571Z,21.00
2024-03-10T12:49:04.320Z,21.20
2024-03-10T12:52:06.326Z,19.60
2024-03-10T12:55:09.264Z,21.92
2024-03-10T12:58:10.952Z,20.17
2024-03-10T13:01:13.025Z,20.77
2024-03-10T13:04:15.034Z,20.92
2024-03-10T13:07:17.260Z,20.73
2024-03-10T13:10:21.557Z,20.85
2024-03-10T13:13:24.589Z,22.37
2024-03-10T13:16:26.665Z,21.80
2024-03-10T13:19:29.716Z,22.85
2024-03-10T13:22:31.238Z,18.38
2024-03-10T13:25:33.339Z,20.70
2024-03-10T13:28:34.892Z,18.87
2024-03-10T13:31:37.076Z,20.10
2024-03-10T13:34:42.228Z,20.52
2024-03-10T13:37:47.557Z,17.75
2024-03-10T13:40:52.147Z,20.85
2024-03-10T13:43:54.217Z,18.90
2024-03-10T13:46:56.096Z,20.45
2024-03-10T13:49:57.639Z,17.80
2024-03-10T13:52:59.599Z,21.70
2024-03-10T13:56:02.357Z,17.92
2024-03-10T13:59:05.224Z,17.33
2024-03-10T14:02:08.239Z,18.77
2024-03-10T14:05:15.445Z,18.17
2024-03-10T14:08:19.150Z,17.23
2024-03-10T14:11:20.898Z,19.80
2024-03-10T14:14:22.655Z,21.73
2024-03-10T14:17:24.598Z,20.98
2024-03-10T14:20:27.561Z,21.10
2024-03-10T14:23:32.292Z,17.75
2024-03-10T14:26:33.920Z,21.85
2024-03-10T14:29:39.603Z,19.67
2024-03-10T14:32:42.019Z,19.05
2024-03-10T14:35:43.894Z,17.90
2024-03-10T14:38:46.362Z,20.98
2024-03-10T14:41:47.998Z,17.65
2024-03-10T14:44:49.572Z,17.77
2024-03-10T14:47:52.424Z,16.40
2024-03-10T14:50:54.919Z,17.90
2024-03-10T14:53:57.331Z,15.20
2024-03-10T14:56:58.880Z,15.32
2024-03-10T15:00:05.145Z,17.30
2024-03-10T15:03:09.511Z,17.98
2024-03-10T15:06:12.054Z,16.02
2024-03-10T15:09:16.092Z,16.40
2024-03-10T15:12:17.835Z,16.08
2024-03-10T15:15:19.629Z,15.37
2024-03-10T15:18:23.302Z,17.08
2024-03-10T15:21:24.869Z,17.73
2024-03-10T15:24:28.089Z,15.77
2024-03-10T15:27:30.013Z,14.43
2024-03-10T15:30:31.730Z,16.83
2024-03-10T15:33:33.410Z,16.83
2024-03-10T15:36:35.399Z,14.88
2024-03-10T15:39:37.101Z,15.02
2024-03-10T15:42:39.352Z,16.73
2024-03-10T15:45:42.801Z,17.13
2024-03-10T15:48:46.612Z,17.38
2024-03-10T15:51:48.218Z,15.40
2024-03-10T15:54:49.774Z,16.83
2024-03-10T15:57:53.963Z,16.13
2024-03-10T16:00:55.551Z,17.70
2024-03-10T16:04:02.218Z,18.27
2024-03-10T16:07:03.823Z,20.38
2024-03-10T16:10:09.321Z,18.65
2024-03-10T16:13:16.946Z,19.27
2024-03-10T16:16:21.329Z,18.93
2024-03-10T16:19:24.587Z,20.70
2024-03-10T16:22:27.016Z,18.67
2024-03-10T16:25:28.532Z,20.83
2024-03-10T16:28:30.138Z,19.60
2024-03-10T16:31:31.744Z,17.40
2024-03-10T16:34:33.288Z,17.85
2024-03-10T16:37:37.731Z,21.77
2024-03-10T16:40:40.259Z,19.60
2024-03-10T16:43:41.971Z,17.60
2024-03-10T16:46:43.555Z,18.57
2024-03-10T16:49:50.693Z,20.48
2024-03-10T16:52:53.622Z,18.15
2024-03-10T16:55:56.037Z,21.42
2024-03-10T16:58:57.708Z,18.33
2024-03-10T17:01:59.382Z,18.83
2024-03-10T17:05:02.072Z,20.42
2024-03-10T17:08:05.267Z,19.20
2024-03-10T17:11:07.456Z,18.08
2024-03-10T17:14:09.663Z,19.63
2024-03-10T17:17:13.935Z,19.80
2024-03-10T17:20:18.196Z,20.67
2024-03-10T17:23:23.002Z,22.20
2024-03-10T17:26:24.798Z,20.35
2024-03-10T17:29:28.764Z,19.83
2024-03-10T17:32:30.519Z,20.80
2024-03-10T17:35:32.242Z,22.17
2024-03-10T17:38:35.171Z,18.50
2024-03-10T17:41:39.996Z,19.75
2024-03-10T17:44:45.845Z,20.90
2024-03-10T17:47:47.605Z,20.80
2024-03-10T17:50:49.288Z,20.95
2024-03-10T17:53:50.911Z,21.95
2024-03-10T17:56:52.437Z,21.85
2024-03-10T17:59:54.219Z,21.80
2024-03-10T18:02:56.037Z,21.00
2024-03-10T18:05:57.625Z,21.65
2024-03-10T18:08:59.386Z,21.17
2024-03-10T18:12:01.760Z,20.60
2024-03-10T18:15:03.705Z,22.42
2024-03-10T18:18:05.643Z,22.57
2024-03-10T18:21:08.318Z,22.15
2024-03-10T18:24:12.733Z,23.17
2024-03-10T18:27:14.531Z,20.75
2024-03-10T18:30:16.891Z,21.45
2024-03-10T18:33:18.783Z,19.97
2024-03-10T18:36:20.568Z,23.48
2024-03-10T18:39:24.713Z,20.50
2024-03-10T18:42:26.327Z,21.30
2024-03-10T18:45:29.008Z,20.80
2024-03-10T18:48:31.136Z,23.17
2024-03-10T18:51:32.971Z,21.48
2024-03-10T18:54:34.988Z,24.27
2024-03-10T18:57:36.794Z,25.00
2024-03-10T19:00:39.024Z,21.92
2024-03-10T19:03:45.309Z,21.67
2024-03-10T19:06:51.098Z,25.85
2024-03-10T19:09:52.982Z,24.40
2024-03-10T19:12:54.525Z,22.73
2024-03-10T19:15:56.130Z,26.55
2024-03-10T19:18:57.617Z,22.53
2024-03-10T19:21:59.277Z,25.38
2024-03-10T19:25:01.780Z,25.70
2024-03-10T19:28:03.544Z,26.40
2024-03-10T19:31:08.058Z,30.20
2024-03-10T19:34:10.232Z,27.57
2024-03-10T19:37:11.900Z,37.30
2024-03-10T19:40:19.807Z,25.60
2024-03-10T19:43:21.535Z,25.58
2024-03-10T19:46:23.144Z,28.23
2024-03-10T19:49:24.733Z,27.37
2024-03-10T19:52:26.282Z,25.60
2024-03-10T19:55:29.256Z,24.05
2024-03-10T19:58:32.038Z,23.27
2024-03-10T20:01:34.600Z,25.08
2024-03-10T20:04:37.456Z,22.63
2024-03-10T20:07:39.042Z,23.40
2024-03-10T20:10:41.202Z,26.35
2024-03-10T20:13:42.793Z,26.55
2024-03-10T20:16:45.805Z,27.70
2024-03-10T20:19:47.389Z,28.27
2024-03-10T20:22:49.793Z,35.17
2024-03-10T20:25:51.315Z,34.78
2024-03-10T20:28:52.866Z,27.75
2024-03-10T20:31:54.965Z,26.90
2024-03-10T20:34:56.474Z,22.60
2024-03-10T20:37:58.063Z,24.98
2024-03-10T20:40:59.684Z,25.23
2024-03-10T20:44:01.363Z,25.85
2024-03-10T20:47:03.691Z,24.80
2024-03-10T20:50:07.341Z,22.97
2024-03-10T20:53:09.417Z,25.30
2024-03-10T20:56:12.336Z,24.42
2024-03-10T20:59:14.066Z,22.08
2024-03-10T21:02:15.713Z,23.52
2024-03-10T21:05:18.410Z,24.43
2024-03-10T21:08:20.799Z,24.45
2024-03-10T21:11:22.740Z,27.27
2024-03-10T21:14:26.437Z,23.38
2024-03-10T21:17:31.493Z,24.45
2024-03-10T21:20:33.251Z,19.70
2024-03-10T21:23:34.942Z,23.42
2024-03-10T21:26:36.586Z,21.40
2024-03-10T21:29:38.444Z,24.08
2024-03-10T21:32:41.018Z,23.42
2024-03-10T21:35:42.702Z,23.00
2024-03-10T21:38:47.573Z,25.83
2024-03-10T21:41:49.461Z,23.50
2024-03-10T21:44:52.212Z,23.35
2024-03-10T21:47:54.180Z,25.67
2024-03-10T21:50:56.283Z,26.67
2024-03-10T21:53:57.813Z,22.63
2024-03-10T21:57:00.764Z,24.73
2024-03-10T22:00:12.113Z,25.58
2024-03-10T22:03:14.478Z,23.45
2024-03-10T22:06:16.552Z,21.47
2024-03-10T22:09:18.087Z,25.98
2024-03-10T22:12:19.649Z,23.98
2024-03-10T22:15:23.378Z,28.23
2024-03-10T22:18:27.749Z,26.95
2024-03-10T22:21:29.455Z,22.77
2024-03-10T22:24:31.068Z,22.95
2024-03-10T22:27:32.943Z,22.17
2024-03-10T22:30:34.860Z,25.15
2024-03-10T22:33:36.609Z,25.13
2024-03-10T22:36:38.272Z,23.67
2024-03-10T22:39:39.857Z,21.42
2024-03-10T22:42:42.501Z,21.67
2024-03-10T22:45:44.105Z,21.20
2024-03-10T22:48:45.675Z,22.83
2024-03-10T22:51:47.296Z,20.63
2024-03-10T22:54:48.793Z,23.50
2024-03-10T22:57:50.558Z,23.25
2024-03-10T23:00:55.732Z,27.15
2024-03-10T23:03:57.427Z,27.33
2024-03-10T23:06:59.167Z,26.90
2024-03-10T23:10:01.740Z,25.85
2024-03-10T23:13:05.392Z,27.75
2024-03-10T23:16:08.335Z,26.80
2024-03-10T23:19:10.903Z,23.90
2024-03-10T23:22:12.709Z,24.37
2024-03-10T23:25:14.468Z,23.20
2024-03-10T23:28:17.194Z,21.90
2024-03-10T23:31:18.749Z,23.90
2024-03-10T23:34:20.856Z,25.60
2024-03-10T23:37:23.280Z,24.17
2024-03-10T23:40:25.596Z,25.52
2024-03-10T23:43:27.778Z,23.33
2024-03-10T23:46:29.427Z,23.85
2024-03-10T23:49:33.582Z,26.27
2024-03-10T23:52:36.571Z,21.00
2024-03-10T23:55:42.837Z,24.80
2024-03-10T23:58:44.454Z,21.65
